createdAt,value
2022-10-20T00:03:53.102Z,77.40
2022-10-20T00:11:58.342Z,75.80
2022-10-20T00:20:06.455Z,74.60
2022-10-20T00:28:12.000Z,74.40
2022-10-20T00:36:22.906Z,74.20
2022-10-20T00:44:54.142Z,72.70
2022-10-20T00:53:04.290Z,70.40
2022-10-20T01:01:09.870Z,69.60
2022-10-20T01:09:17.915Z,69.70
2022-10-20T01:17:32.385Z,70.50
2022-10-20T01:25:56.420Z,70.20
2022-10-20T01:34:12.728Z,71.90
2022-10-20T01:42:23.668Z,71.70
2022-10-20T01:50:32.468Z,69.80
2022-10-20T01:59:32.069Z,69.70
2022-10-20T02:07:40.779Z,69.50
2022-10-20T02:15:49.904Z,69.10
2022-10-20T02:24:03.708Z,68.90
2022-10-20T02:32:10.727Z,70.60
2022-10-20T02:40:19.036Z,69.40
2022-10-20T02:48:24.297Z,69.60
2022-10-20T02:56:32.210Z,70.40
2022-10-20T03:04:37.476Z,71.20
2022-10-20T03:12:45.335Z,71.40
2022-10-20T03:20:53.259Z,70.90
2022-10-20T03:29:01.241Z,69.90
2022-10-20T03:37:06.528Z,72.80
2022-10-20T03:45:17.750Z,71.50
2022-10-20T03:53:24.027Z,72.70
2022-10-20T04:01:35.195Z,71.60
2022-10-20T04:09:40.530Z,72.30
2022-10-20T04:17:48.534Z,72.40
2022-10-20T04:25:53.828Z,72.80
2022-10-20T04:34:01.680Z,73.20
2022-10-20T04:42:07.018Z,74.50
2022-10-20T04:50:17.102Z,74.70
2022-10-20T04:58:36.622Z,75.20
2022-10-20T05:06:45.174Z,74.90
2022-10-20T05:14:50.410Z,74.30
2022-10-20T05:22:58.780Z,73.80
2022-10-20T05:31:05.518Z,74.20
2022-10-20T05:39:14.369Z,74.40
2022-10-20T05:47:19.648Z,73.70
2022-10-20T05:55:27.665Z,72.60
2022-10-20T06:03:33.179Z,72.20
2022-10-20T06:11:41.898Z,71.00
2022-10-20T06:19:47.631Z,70.20
2022-10-20T06:27:55.544Z,70.00
2022-10-20T06:36:03.475Z,69.70
2022-10-20T06:44:11.381Z,67.80
2022-10-20T06:52:17.209Z,66.90
2022-10-20T07:00:25.261Z,66.50
2022-10-20T07:08:32.112Z,66.50
2022-10-20T07:16:40.061Z,66.60
2022-10-20T07:24:45.370Z,62.80
2022-10-20T07:32:54.431Z,64.40
2022-10-20T07:41:05.233Z,64.00
2022-10-20T07:57:38.423Z,60.00
2022-10-20T08:05:46.329Z,58.90
2022-10-20T08:13:51.683Z,58.30
2022-10-20T08:21:59.807Z,58.10
2022-10-20T08:30:22.903Z,57.40
2022-10-20T08:38:31.555Z,58.00
2022-10-20T08:46:39.360Z,58.10
2022-10-20T08:54:47.580Z,57.30
2022-10-20T09:02:54.502Z,46.50
2022-10-20T09:11:03.390Z,37.80
2022-10-20T09:19:16.821Z,33.90
2022-10-20T09:27:35.713Z,31.40
2022-10-20T09:35:43.463Z,31.50
2022-10-20T09:43:58.174Z,30.00
2022-10-20T09:52:04.796Z,30.30
2022-10-20T10:00:36.879Z,29.60
2022-10-20T10:08:48.327Z,29.10
2022-10-20T10:16:56.278Z,28.90
2022-10-20T10:25:03.679Z,28.80
2022-10-20T10:33:28.906Z,29.40
2022-10-20T10:41:55.286Z,34.60
2022-10-20T10:50:22.267Z,40.90
2022-10-20T10:58:43.037Z,45.50
2022-10-20T11:06:57.959Z,47.90
2022-10-20T11:15:18.472Z,50.70
2022-10-20T11:23:47.548Z,50.70
2022-10-20T11:31:59.236Z,50.00
2022-10-20T11:40:19.183Z,49.90
2022-10-20T11:48:29.754Z,49.20
2022-10-20T11:57:07.043Z,50.50
2022-10-20T12:05:41.567Z,49.90
2022-10-20T12:13:59.457Z,50.80
2022-10-20T12:22:06.925Z,50.10
2022-10-20T12:30:42.165Z,51.20
2022-10-20T12:38:52.988Z,51.30
2022-10-20T12:47:01.344Z,51.30
2022-10-20T12:55:17.958Z,52.30
2022-10-20T13:03:49.518Z,55.00
2022-10-20T13:12:04.518Z,51.70
2022-10-20T13:20:24.143Z,52.40
2022-10-20T13:28:34.146Z,52.20
2022-10-20T13:36:50.274Z,52.60
2022-10-20T13:45:09.323Z,53.90
2022-10-20T13:53:22.473Z,53.80
2022-10-20T14:01:31.510Z,52.50
2022-10-20T14:09:39.523Z,54.00
2022-10-20T14:17:58.908Z,53.50
2022-10-20T14:26:05.515Z,53.80
2022-10-20T14:34:23.777Z,54.90
2022-10-20T14:42:33.073Z,54.20
2022-10-20T14:50:41.904Z,55.10
2022-10-20T14:59:01.095Z,55.00
2022-10-20T15:07:15.608Z,55.80
2022-10-20T15:15:25.133Z,55.60
2022-10-20T15:23:33.903Z,55.70
2022-10-20T15:31:39.242Z,56.40
2022-10-20T15:39:47.431Z,58.00
2022-10-20T15:47:52.786Z,58.30
2022-10-20T15:56:00.668Z,57.60
2022-10-20T16:04:10.080Z,57.50
2022-10-20T16:12:18.316Z,57.70
2022-10-20T16:20:23.647Z,59.00
2022-10-20T16:28:33.819Z,59.70
2022-10-20T16:36:39.213Z,59.50
2022-10-20T16:44:47.672Z,60.40
2022-10-20T16:52:52.957Z,62.60
2022-10-20T17:01:06.557Z,63.20
2022-10-20T17:09:12.137Z,63.10
2022-10-20T17:17:20.111Z,65.00
2022-10-20T17:25:25.643Z,65.40
2022-10-20T17:33:34.671Z,65.80
2022-10-20T17:41:42.979Z,67.40
2022-10-20T17:49:50.997Z,68.20
2022-10-20T17:57:56.267Z,69.10
2022-10-20T18:06:09.798Z,69.00
2022-10-20T18:14:15.236Z,70.80
2022-10-20T18:22:23.959Z,69.80
2022-10-20T18:30:29.508Z,70.10
2022-10-20T18:38:39.373Z,70.70
2022-10-20T18:46:46.203Z,70.90
2022-10-20T18:54:54.414Z,70.80
2022-10-20T19:03:01.630Z,71.10
2022-10-20T19:11:12.189Z,73.00
2022-10-20T19:19:18.429Z,72.70
2022-10-20T19:27:27.417Z,74.20
2022-10-20T19:35:33.019Z,73.60
2022-10-20T19:43:41.991Z,73.60
2022-10-20T19:51:47.448Z,73.40
2022-10-20T19:59:55.515Z,73.20
2022-10-20T20:08:00.838Z,74.30
2022-10-20T20:16:12.319Z,75.70
2022-10-20T20:24:17.927Z,74.50
2022-10-20T20:32:25.760Z,75.20
2022-10-20T20:40:31.078Z,75.20
2022-10-20T20:48:39.407Z,75.50
2022-10-20T20:56:45.745Z,75.40
2022-10-20T21:04:53.685Z,75.40
2022-10-20T21:12:59.015Z,76.70
2022-10-20T21:21:13.096Z,76.30
2022-10-20T21:29:18.589Z,76.40
2022-10-20T21:37:26.475Z,76.20
2022-10-20T21:45:31.771Z,76.30
2022-10-20T21:53:39.776Z,77.00
2022-10-20T22:01:45.048Z,77.60
2022-10-20T22:09:53.390Z,76.60
2022-10-20T22:17:58.663Z,77.10
2022-10-20T23:04:54.474Z,91.60
2022-10-20T23:12:59.721Z,80.80
2022-10-20T23:21:08.542Z,79.40
2022-10-20T23:29:13.836Z,79.00
2022-10-20T23:37:23.761Z,77.90
2022-10-20T23:45:30.112Z,78.60
2022-10-20T23:53:38.877Z,79.00
